Kleberg, Texas
Current Conditions -  °F | °C
As of 4:15 AM on Wednesday 26 Nov 2014 (Local Time) from KHQZ Reporting Station
Clear Clear  
Wind Chill: 31°   Ceiling: Unl
Heat Index: 36°   Visibility: 10mi
Dew Point: 29°   Wind: 6mph
Humidity: 77%   Direction: 160°SSE
Pressure: 30.07"   Gusts: NA
Location:  32.6719°N, 96.62°W
Report Text: KHQZ 261015Z AUTO 16005KT 10SM CLR 02/M01 A3007 RMK AO1 T00221015
Loading
Personal Weather Stations






























Interactive Weather Map New forecast layout! Learn more

10-Day Weather Forecast

Advertisements
Track Severe Weather on mobile